createdAt,value
2022-10-26T00:01:26.000Z,21.90
2022-10-26T00:03:57.802Z,21.90
2022-10-26T00:06:29.008Z,21.80
2022-10-26T00:08:58.537Z,21.80
2022-10-26T00:11:28.214Z,21.80
2022-10-26T00:13:56.608Z,21.80
2022-10-26T00:16:27.549Z,21.80
2022-10-26T00:18:55.875Z,21.80
2022-10-26T00:21:24.223Z,21.80
2022-10-26T00:23:52.570Z,21.80
2022-10-26T00:26:20.898Z,21.70
2022-10-26T00:28:50.670Z,21.70
2022-10-26T00:31:19.169Z,21.70
2022-10-26T00:33:47.485Z,21.70
2022-10-26T00:36:16.934Z,21.70
2022-10-26T00:38:50.288Z,21.70
2022-10-26T00:41:21.333Z,21.70
2022-10-26T00:43:53.213Z,21.70
2022-10-26T00:46:25.607Z,21.70
2022-10-26T00:48:57.025Z,21.70
2022-10-26T00:51:33.013Z,21.70
2022-10-26T00:54:03.649Z,21.70
2022-10-26T00:56:33.581Z,21.70
2022-10-26T00:59:06.432Z,21.70
2022-10-26T01:01:36.206Z,21.70
2022-10-26T01:04:04.975Z,21.70
2022-10-26T01:06:35.306Z,21.70
2022-10-26T01:09:04.194Z,21.70
2022-10-26T01:11:32.768Z,21.60
2022-10-26T01:14:04.730Z,21.70
2022-10-26T01:16:54.834Z,21.60
2022-10-26T01:19:53.677Z,21.60
2022-10-26T01:22:25.499Z,21.60
2022-10-26T01:25:08.400Z,21.60
2022-10-26T01:27:37.937Z,21.60
2022-10-26T01:30:26.512Z,21.60
2022-10-26T01:33:10.626Z,21.60
2022-10-26T01:35:45.699Z,21.60
2022-10-26T01:38:27.767Z,21.60
2022-10-26T01:41:05.227Z,21.50
2022-10-26T01:43:38.154Z,21.60
2022-10-26T01:46:10.333Z,21.50
2022-10-26T01:48:41.031Z,21.50
2022-10-26T01:51:12.961Z,21.50
2022-10-26T01:53:47.076Z,21.50
2022-10-26T01:56:20.977Z,21.50
2022-10-26T01:59:15.064Z,21.50
2022-10-26T02:02:03.660Z,21.50
2022-10-26T02:04:43.014Z,21.40
2022-10-26T02:07:19.265Z,21.40
2022-10-26T02:09:58.097Z,21.40
2022-10-26T02:12:35.134Z,21.40
2022-10-26T02:15:07.670Z,21.40
2022-10-26T02:17:47.562Z,21.30
2022-10-26T02:20:21.843Z,21.30
2022-10-26T02:22:53.146Z,21.30
2022-10-26T02:25:24.928Z,21.40
2022-10-26T02:27:57.600Z,21.30
2022-10-26T02:30:26.466Z,21.30
2022-10-26T02:32:58.504Z,21.30
2022-10-26T02:35:31.156Z,21.30
2022-10-26T02:38:03.074Z,21.30
2022-10-26T02:40:33.573Z,21.30
2022-10-26T02:43:06.613Z,21.30
2022-10-26T02:45:40.685Z,21.30
2022-10-26T02:48:10.451Z,21.30
2022-10-26T02:50:48.857Z,21.30
2022-10-26T02:53:26.243Z,21.30
2022-10-26T02:55:54.924Z,21.40
2022-10-26T02:58:29.002Z,21.30
2022-10-26T03:00:58.177Z,21.30
2022-10-26T03:03:27.970Z,21.30
2022-10-26T03:05:56.347Z,21.30
2022-10-26T03:08:25.638Z,21.30
2022-10-26T03:10:54.127Z,21.30
2022-10-26T03:13:22.410Z,21.40
2022-10-26T03:15:50.776Z,21.30
2022-10-26T03:18:19.053Z,21.30
2022-10-26T03:20:48.782Z,21.30
2022-10-26T03:23:17.078Z,21.30
2022-10-26T03:25:45.452Z,21.30
2022-10-26T03:28:14.268Z,21.30
2022-10-26T03:30:42.633Z,21.30
2022-10-26T03:33:11.001Z,21.30
2022-10-26T03:35:39.362Z,21.30
2022-10-26T03:38:09.243Z,21.30
2022-10-26T03:40:37.879Z,21.30
2022-10-26T03:43:06.256Z,21.30
2022-10-26T03:45:34.647Z,21.30
2022-10-26T03:48:03.000Z,21.30
2022-10-26T03:50:31.551Z,21.30
2022-10-26T03:52:59.850Z,21.30
2022-10-26T03:55:29.666Z,21.30
2022-10-26T03:57:57.964Z,21.30
2022-10-26T04:00:26.450Z,21.30
2022-10-26T04:02:58.891Z,21.30
2022-10-26T04:05:29.284Z,21.30
2022-10-26T04:07:59.610Z,21.30
2022-10-26T04:10:30.237Z,21.30
2022-10-26T04:13:00.370Z,21.30
2022-10-26T04:15:29.606Z,21.30
2022-10-26T04:17:58.854Z,21.30
2022-10-26T04:20:28.043Z,21.30
2022-10-26T04:23:00.360Z,21.30
2022-10-26T04:25:32.952Z,21.30
2022-10-26T04:28:02.336Z,21.30
2022-10-26T04:30:30.821Z,21.20
2022-10-26T04:32:59.473Z,21.20
2022-10-26T04:35:28.073Z,21.30
2022-10-26T04:38:00.441Z,21.30
2022-10-26T04:40:31.008Z,21.30
2022-10-26T04:43:00.023Z,21.20
2022-10-26T04:45:31.196Z,21.30
2022-10-26T04:48:05.181Z,21.30
2022-10-26T04:50:34.099Z,21.20
2022-10-26T04:53:02.656Z,21.20
2022-10-26T04:55:32.493Z,21.20
2022-10-26T04:58:01.611Z,21.20
2022-10-26T05:00:33.219Z,21.20
2022-10-26T05:03:02.367Z,21.30
2022-10-26T05:05:32.383Z,21.30
2022-10-26T05:08:00.776Z,21.20
2022-10-26T05:10:29.908Z,21.20
2022-10-26T05:13:00.970Z,21.20
2022-10-26T05:15:30.150Z,21.20
2022-10-26T05:17:59.906Z,21.20
2022-10-26T05:20:31.265Z,21.20
2022-10-26T05:23:01.292Z,21.20
2022-10-26T05:25:31.347Z,21.20
2022-10-26T05:28:01.327Z,21.20
2022-10-26T05:30:30.496Z,21.20
2022-10-26T05:33:00.240Z,21.20
2022-10-26T05:35:28.989Z,21.20
2022-10-26T05:37:57.240Z,21.20
2022-10-26T05:40:25.961Z,21.20
2022-10-26T05:42:54.486Z,21.20
2022-10-26T05:45:24.153Z,21.20
2022-10-26T05:47:52.770Z,21.20
2022-10-26T05:50:21.444Z,21.20
2022-10-26T05:52:51.135Z,21.20
2022-10-26T05:55:20.461Z,21.20
2022-10-26T05:57:49.669Z,21.30
2022-10-26T06:00:20.017Z,21.20
2022-10-26T06:03:06.695Z,21.20
2022-10-26T06:05:39.969Z,21.30
2022-10-26T06:08:11.515Z,21.30
2022-10-26T06:10:41.041Z,21.20
2022-10-26T06:13:09.827Z,21.20
2022-10-26T06:15:46.441Z,21.30
2022-10-26T06:18:26.997Z,21.20
2022-10-26T06:21:19.054Z,21.20
2022-10-26T06:23:56.425Z,21.20
2022-10-26T06:26:37.151Z,21.20
2022-10-26T06:29:18.034Z,21.20
2022-10-26T06:31:48.105Z,21.20
2022-10-26T06:34:24.265Z,21.20
2022-10-26T06:39:23.639Z,21.20
2022-10-26T06:41:52.548Z,21.30
2022-10-26T06:44:24.507Z,21.20
2022-10-26T06:46:59.015Z,21.20
2022-10-26T06:49:33.428Z,21.30
2022-10-26T06:52:04.964Z,21.30
2022-10-26T06:54:49.408Z,21.30
2022-10-26T06:57:19.405Z,21.30
2022-10-26T06:59:51.688Z,21.30
2022-10-26T07:02:20.862Z,21.30
2022-10-26T07:04:50.698Z,21.20
2022-10-26T07:07:21.157Z,21.30
2022-10-26T07:09:49.653Z,21.30
2022-10-26T07:12:18.037Z,21.20
2022-10-26T07:14:46.267Z,21.30
2022-10-26T07:17:14.575Z,21.30
2022-10-26T07:19:44.953Z,21.30
2022-10-26T07:22:14.763Z,21.30
2022-10-26T07:24:43.035Z,21.30
2022-10-26T07:27:11.327Z,21.30
2022-10-26T07:29:39.738Z,21.30
2022-10-26T07:32:09.035Z,21.30
2022-10-26T07:34:37.418Z,21.30
2022-10-26T07:37:05.776Z,21.30
2022-10-26T07:39:35.377Z,21.30
2022-10-26T07:42:03.636Z,21.30
2022-10-26T07:44:31.960Z,21.40
2022-10-26T07:47:00.792Z,21.40
2022-10-26T07:49:29.093Z,21.30
2022-10-26T07:51:57.384Z,21.40
2022-10-26T07:54:25.708Z,21.30
2022-10-26T07:56:55.371Z,21.30
2022-10-26T07:59:23.676Z,21.40
2022-10-26T08:01:51.971Z,21.40
2022-10-26T08:04:20.304Z,21.50
2022-10-26T08:06:48.878Z,21.40
2022-10-26T08:09:17.094Z,21.50
2022-10-26T08:11:45.339Z,21.50
2022-10-26T08:14:15.492Z,21.50
2022-10-26T08:16:43.897Z,21.60
2022-10-26T08:19:12.184Z,21.60
2022-10-26T08:21:40.795Z,21.60
2022-10-26T08:24:09.687Z,21.60
2022-10-26T08:26:37.991Z,21.70
2022-10-26T08:29:07.057Z,21.70
2022-10-26T08:31:36.946Z,21.70
2022-10-26T08:34:05.322Z,21.80
2022-10-26T08:36:33.587Z,21.80
2022-10-26T08:39:01.870Z,21.80
2022-10-26T08:41:37.930Z,21.80
2022-10-26T08:44:15.424Z,21.80
2022-10-26T08:46:49.818Z,21.80
2022-10-26T08:49:24.416Z,21.90
2022-10-26T08:51:56.448Z,21.90
2022-10-26T08:54:36.540Z,21.90
2022-10-26T08:57:13.216Z,21.90
2022-10-26T08:59:49.012Z,21.90
2022-10-26T09:02:19.735Z,21.90
2022-10-26T09:04:48.309Z,22.00
2022-10-26T09:07:38.546Z,22.00
2022-10-26T09:10:23.351Z,22.10
2022-10-26T09:12:58.686Z,22.10
2022-10-26T09:15:34.237Z,22.10
2022-10-26T09:18:17.090Z,22.20
2022-10-26T09:21:09.986Z,22.20
2022-10-26T09:24:02.830Z,22.30
2022-10-26T09:26:34.246Z,22.30
2022-10-26T09:29:06.133Z,22.40
2022-10-26T09:31:43.148Z,22.40
2022-10-26T09:34:21.148Z,22.40
2022-10-26T09:36:52.494Z,22.40
2022-10-26T09:39:26.836Z,22.50
2022-10-26T09:41:59.894Z,22.50
2022-10-26T09:44:32.097Z,22.60
2022-10-26T09:47:06.157Z,22.60
2022-10-26T09:49:42.656Z,22.70
2022-10-26T09:54:44.926Z,22.70
2022-10-26T09:57:17.372Z,22.70
2022-10-26T09:59:50.001Z,22.80
2022-10-26T10:02:34.962Z,22.80
2022-10-26T10:05:27.461Z,22.90
2022-10-26T10:08:18.093Z,23.00
2022-10-26T10:11:03.396Z,23.00
2022-10-26T10:13:33.219Z,23.10
2022-10-26T10:16:07.179Z,23.10
2022-10-26T10:18:36.359Z,23.20
2022-10-26T10:21:07.289Z,23.30
2022-10-26T10:23:37.091Z,23.30
2022-10-26T10:26:12.133Z,23.40
2022-10-26T10:28:42.784Z,23.40
2022-10-26T10:31:21.919Z,23.40
2022-10-26T10:33:50.467Z,23.50
2022-10-26T10:36:22.648Z,23.50
2022-10-26T10:38:52.250Z,23.60
2022-10-26T10:41:26.322Z,23.60
2022-10-26T10:43:57.308Z,23.70
2022-10-26T10:46:28.293Z,23.70
2022-10-26T10:49:04.172Z,23.80
2022-10-26T10:51:39.817Z,23.80
2022-10-26T10:54:22.302Z,23.90
2022-10-26T10:56:54.380Z,24.00
2022-10-26T10:59:54.072Z,24.00
2022-10-26T11:03:10.270Z,24.00
2022-10-26T11:05:55.225Z,24.10
2022-10-26T11:08:31.984Z,24.20
2022-10-26T11:11:04.074Z,24.30
2022-10-26T11:13:38.093Z,24.30
2022-10-26T11:16:13.165Z,24.40
2022-10-26T11:18:45.563Z,24.40
2022-10-26T11:21:23.491Z,24.40
2022-10-26T11:23:58.338Z,24.50
2022-10-26T11:26:32.975Z,24.50
2022-10-26T11:29:04.845Z,24.50
2022-10-26T11:31:39.077Z,24.60
2022-10-26T11:34:20.204Z,24.70
2022-10-26T11:36:55.740Z,24.70
2022-10-26T11:39:33.051Z,24.80
2022-10-26T11:42:08.562Z,24.90
2022-10-26T11:44:41.336Z,25.00
2022-10-26T11:47:16.189Z,25.00
2022-10-26T11:49:50.310Z,25.10
2022-10-26T11:52:23.787Z,25.10
2022-10-26T11:54:56.664Z,25.20
2022-10-26T11:57:26.262Z,25.30
2022-10-26T11:59:58.489Z,25.30
2022-10-26T12:02:27.430Z,25.40
2022-10-26T12:05:01.863Z,25.40
2022-10-26T12:07:33.076Z,25.50
2022-10-26T12:10:05.428Z,25.50
2022-10-26T12:12:38.333Z,25.60
2022-10-26T12:15:19.351Z,25.70
2022-10-26T12:17:54.037Z,25.70
2022-10-26T12:21:02.493Z,25.80
2022-10-26T12:23:51.237Z,25.80
2022-10-26T12:26:55.389Z,25.80
2022-10-26T12:29:39.286Z,25.90
2022-10-26T12:32:39.211Z,25.90
2022-10-26T12:35:32.305Z,26.00
2022-10-26T12:38:01.952Z,26.10
2022-10-26T12:40:44.263Z,26.10
2022-10-26T12:43:42.308Z,26.10
2022-10-26T12:46:45.415Z,26.10
2022-10-26T12:49:47.624Z,26.10
2022-10-26T12:52:34.094Z,26.10
2022-10-26T12:55:30.503Z,26.10
2022-10-26T12:58:25.880Z,26.20
2022-10-26T13:01:28.730Z,26.30
2022-10-26T13:04:18.836Z,26.30
2022-10-26T13:07:01.041Z,26.30
2022-10-26T13:09:33.187Z,26.40
2022-10-26T13:12:06.978Z,26.40
2022-10-26T13:14:41.265Z,26.40
2022-10-26T13:17:26.368Z,26.40
2022-10-26T13:20:00.551Z,26.40
2022-10-26T13:22:29.533Z,26.40
2022-10-26T13:25:01.882Z,26.40
2022-10-26T13:27:45.667Z,26.50
2022-10-26T13:30:42.957Z,26.50
2022-10-26T13:33:24.609Z,26.50
2022-10-26T13:36:00.212Z,26.60
2022-10-26T13:38:34.240Z,26.60
2022-10-26T13:41:09.016Z,26.60
2022-10-26T13:43:39.019Z,26.60
2022-10-26T13:46:07.589Z,26.60
2022-10-26T13:48:40.587Z,26.60
2022-10-26T13:51:22.362Z,26.70
2022-10-26T13:53:55.875Z,26.60
2022-10-26T13:56:31.990Z,26.70
2022-10-26T13:59:03.708Z,26.70
2022-10-26T14:01:32.961Z,26.70
2022-10-26T14:04:01.290Z,26.70
2022-10-26T14:06:34.604Z,26.60
2022-10-26T14:09:05.570Z,26.60
2022-10-26T14:11:37.001Z,26.60
2022-10-26T14:14:06.030Z,26.60
2022-10-26T14:16:35.599Z,26.60
2022-10-26T14:19:04.466Z,26.60
2022-10-26T14:21:34.223Z,26.60
2022-10-26T14:24:07.698Z,26.60
2022-10-26T14:26:41.598Z,26.50
2022-10-26T14:29:18.387Z,26.50
2022-10-26T14:31:46.861Z,26.60
2022-10-26T14:34:15.413Z,26.50
2022-10-26T14:36:49.754Z,26.50
2022-10-26T14:39:26.046Z,26.60
2022-10-26T14:41:55.786Z,26.60
2022-10-26T14:44:25.716Z,26.50
2022-10-26T14:46:54.554Z,26.50
2022-10-26T14:49:25.235Z,26.50
2022-10-26T14:51:59.933Z,26.50
2022-10-26T14:54:29.343Z,26.50
2022-10-26T14:56:58.160Z,26.40
2022-10-26T14:59:29.266Z,26.40
2022-10-26T15:01:59.863Z,26.40
2022-10-26T15:04:35.155Z,26.40
2022-10-26T15:07:10.799Z,26.40
2022-10-26T15:09:45.186Z,26.40
2022-10-26T15:12:22.206Z,26.40
2022-10-26T15:14:51.809Z,26.30
2022-10-26T15:17:24.393Z,26.30
2022-10-26T15:19:53.786Z,26.30
2022-10-26T15:22:30.935Z,26.30
2022-10-26T15:25:02.981Z,26.30
2022-10-26T15:27:31.400Z,26.20
2022-10-26T15:30:22.216Z,26.20
2022-10-26T15:32:51.040Z,26.20
2022-10-26T15:35:30.939Z,26.10
2022-10-26T15:38:02.147Z,26.10
2022-10-26T15:40:32.950Z,26.10
2022-10-26T15:43:02.569Z,26.00
2022-10-26T15:45:35.157Z,26.00
2022-10-26T15:48:19.556Z,26.00
2022-10-26T15:50:48.042Z,26.00
2022-10-26T15:53:21.976Z,26.00
2022-10-26T15:55:51.282Z,25.90
2022-10-26T15:58:19.725Z,25.90
2022-10-26T16:00:48.012Z,25.80
2022-10-26T16:03:21.083Z,25.80
2022-10-26T16:05:51.707Z,25.80
2022-10-26T16:08:21.423Z,25.80
2022-10-26T16:10:51.155Z,25.70
2022-10-26T16:13:19.908Z,25.70
2022-10-26T16:15:48.441Z,25.60
2022-10-26T16:18:16.999Z,25.60
2022-10-26T16:20:47.761Z,25.60
2022-10-26T16:23:16.190Z,25.50
2022-10-26T16:25:47.591Z,25.50
2022-10-26T16:28:17.968Z,25.50
2022-10-26T16:30:46.465Z,25.50
2022-10-26T16:33:14.919Z,25.40
2022-10-26T16:35:43.536Z,25.40
2022-10-26T16:38:11.897Z,25.40
2022-10-26T16:40:42.774Z,25.40
2022-10-26T16:43:12.667Z,25.30
2022-10-26T16:45:42.853Z,25.30
2022-10-26T16:48:15.266Z,25.20
2022-10-26T16:50:43.734Z,25.20
2022-10-26T16:53:12.258Z,25.20
2022-10-26T16:55:40.549Z,25.10
2022-10-26T16:58:09.189Z,25.10
2022-10-26T17:00:39.327Z,25.10
2022-10-26T17:03:07.766Z,25.00
2022-10-26T17:05:36.025Z,25.00
2022-10-26T17:08:04.326Z,25.00
2022-10-26T17:10:34.337Z,25.00
2022-10-26T17:13:03.871Z,25.00
2022-10-26T17:15:34.222Z,24.90
2022-10-26T17:18:04.682Z,24.90
2022-10-26T17:20:33.201Z,24.90
2022-10-26T17:23:01.582Z,24.90
2022-10-26T17:25:29.951Z,24.80
2022-10-26T17:27:58.651Z,24.80
2022-10-26T17:30:28.488Z,24.80
2022-10-26T17:32:58.708Z,24.70
2022-10-26T17:35:28.419Z,24.70
2022-10-26T17:37:57.349Z,24.70
2022-10-26T17:40:25.660Z,24.70
2022-10-26T17:42:54.034Z,24.70
2022-10-26T17:45:23.592Z,24.70
2022-10-26T17:47:52.150Z,24.70
2022-10-26T17:50:20.742Z,24.60
2022-10-26T17:52:50.513Z,24.60
2022-10-26T17:55:18.901Z,24.50
2022-10-26T17:57:47.323Z,24.50
2022-10-26T18:00:18.350Z,24.50
2022-10-26T18:02:47.419Z,24.50
2022-10-26T18:05:16.089Z,24.50
2022-10-26T18:07:44.347Z,24.50
2022-10-26T18:10:36.541Z,24.40
2022-10-26T18:13:02.446Z,24.40
2022-10-26T18:15:30.792Z,24.40
2022-10-26T18:18:00.744Z,24.40
2022-10-26T18:20:29.323Z,24.40
2022-10-26T18:22:58.252Z,24.40
2022-10-26T18:25:28.527Z,24.40
2022-10-26T18:27:57.208Z,24.40
2022-10-26T18:30:26.136Z,24.40
2022-10-26T18:32:54.694Z,24.30
2022-10-26T18:35:23.376Z,24.30
2022-10-26T18:37:52.086Z,24.30
2022-10-26T18:40:20.504Z,24.30
2022-10-26T18:42:50.480Z,24.30
2022-10-26T18:45:18.968Z,24.20
2022-10-26T18:47:47.599Z,24.20
2022-10-26T18:50:16.806Z,24.10
2022-10-26T18:52:46.155Z,24.10
2022-10-26T18:55:14.474Z,24.10
2022-10-26T18:57:43.007Z,24.00
2022-10-26T19:00:14.474Z,24.10
2022-10-26T19:02:42.791Z,24.00
2022-10-26T19:05:11.570Z,24.00
2022-10-26T19:07:40.314Z,24.00
2022-10-26T19:10:09.955Z,24.00
2022-10-26T19:12:38.514Z,23.90
2022-10-26T19:15:08.022Z,23.90
2022-10-26T19:17:37.872Z,23.90
2022-10-26T19:20:07.563Z,23.90
2022-10-26T19:22:35.966Z,23.90
2022-10-26T19:25:05.033Z,23.80
2022-10-26T19:27:33.549Z,23.80
2022-10-26T19:30:02.093Z,23.80
2022-10-26T19:32:32.424Z,23.80
2022-10-26T19:35:03.052Z,23.80
2022-10-26T19:37:31.549Z,23.80
2022-10-26T19:40:01.185Z,23.80
2022-10-26T19:42:30.082Z,23.80
2022-10-26T19:44:58.823Z,23.70
2022-10-26T19:47:30.884Z,23.70
2022-10-26T19:50:00.083Z,23.70
2022-10-26T19:52:30.207Z,23.70
2022-10-26T19:54:59.404Z,23.70
2022-10-26T19:57:30.527Z,23.60
2022-10-26T19:59:58.995Z,23.60
2022-10-26T20:02:27.315Z,23.60
2022-10-26T20:04:55.647Z,23.60
2022-10-26T20:07:23.979Z,23.60
2022-10-26T20:09:53.656Z,23.60
2022-10-26T20:12:21.960Z,23.60
2022-10-26T20:14:50.409Z,23.60
2022-10-26T20:17:19.489Z,23.50
2022-10-26T20:19:48.507Z,23.60
2022-10-26T20:22:18.483Z,23.50
2022-10-26T20:24:47.034Z,23.50
2022-10-26T20:27:19.265Z,23.50
2022-10-26T20:29:48.439Z,23.50
2022-10-26T20:32:17.985Z,23.50
2022-10-26T20:34:47.135Z,23.40
2022-10-26T20:37:17.465Z,23.40
2022-10-26T20:39:47.255Z,23.40
2022-10-26T20:42:24.432Z,23.40
2022-10-26T20:45:02.634Z,23.40
2022-10-26T20:47:32.609Z,23.40
2022-10-26T20:50:02.453Z,23.40
2022-10-26T20:52:38.612Z,23.40
2022-10-26T20:55:16.004Z,23.40
2022-10-26T20:57:54.119Z,23.40
2022-10-26T21:00:23.091Z,23.30
2022-10-26T21:02:51.757Z,23.40
2022-10-26T21:05:21.091Z,23.30
2022-10-26T21:07:49.550Z,23.30
2022-10-26T21:10:18.012Z,23.30
2022-10-26T21:12:47.934Z,23.30
2022-10-26T21:15:16.520Z,23.20
2022-10-26T21:17:44.799Z,23.20
2022-10-26T21:20:13.345Z,23.30
2022-10-26T21:22:41.685Z,23.20
2022-10-26T21:25:10.609Z,23.20
2022-10-26T21:27:39.672Z,23.20
2022-10-26T21:30:11.145Z,23.20
2022-10-26T21:32:39.461Z,23.20
2022-10-26T21:35:08.464Z,23.20
2022-10-26T21:37:36.746Z,23.20
2022-10-26T21:40:05.851Z,23.10
2022-10-26T21:42:34.398Z,23.10
2022-10-26T21:45:03.000Z,23.10
2022-10-26T21:47:32.709Z,23.10
2022-10-26T21:50:01.034Z,23.10
2022-10-26T21:52:29.400Z,23.10
2022-10-26T21:54:57.651Z,23.10
2022-10-26T21:57:25.971Z,23.00
2022-10-26T21:59:54.346Z,23.00
2022-10-26T22:02:22.706Z,23.00
2022-10-26T22:04:53.007Z,23.00
2022-10-26T22:07:21.382Z,23.00
2022-10-26T22:10:07.884Z,23.00
2022-10-26T22:12:37.964Z,22.90
2022-10-26T22:15:07.622Z,22.90
2022-10-26T22:17:39.205Z,22.90
2022-10-26T22:20:10.731Z,23.00
2022-10-26T22:22:39.321Z,22.90
2022-10-26T22:25:08.715Z,22.90
2022-10-26T22:27:37.063Z,22.90
2022-10-26T22:30:06.050Z,22.80
2022-10-26T22:32:34.422Z,22.80
2022-10-26T22:35:11.314Z,22.80
2022-10-26T22:37:52.337Z,22.80
2022-10-26T22:40:20.969Z,22.80
2022-10-26T22:42:52.607Z,22.80
2022-10-26T22:45:21.479Z,22.80
2022-10-26T22:47:49.923Z,22.80
2022-10-26T22:50:18.825Z,22.70
2022-10-26T22:52:47.530Z,22.70
2022-10-26T22:55:17.685Z,22.70
2022-10-26T22:57:46.210Z,22.70
2022-10-26T23:00:15.689Z,22.70
2022-10-26T23:02:43.932Z,22.70
2022-10-26T23:05:12.315Z,22.70
2022-10-26T23:07:40.613Z,22.70
2022-10-26T23:10:09.945Z,22.70
2022-10-26T23:12:39.987Z,22.60
2022-10-26T23:15:09.054Z,22.60
2022-10-26T23:17:37.349Z,22.60
2022-10-26T23:20:06.709Z,22.60
2022-10-26T23:22:35.853Z,22.60
2022-10-26T23:25:04.115Z,22.60
2022-10-26T23:27:32.407Z,22.60
2022-10-26T23:30:02.132Z,22.50
2022-10-26T23:32:30.364Z,22.50
2022-10-26T23:34:58.888Z,22.50
2022-10-26T23:37:27.179Z,22.50
2022-10-26T23:39:55.546Z,22.50
2022-10-26T23:42:23.885Z,22.50
2022-10-26T23:44:52.158Z,22.50
2022-10-26T23:47:21.961Z,22.40
2022-10-26T23:49:50.278Z,22.40
2022-10-26T23:52:18.689Z,22.40
2022-10-26T23:54:46.932Z,22.40
2022-10-26T23:57:15.327Z,22.40
2022-10-26T23:59:43.704Z,22.40
